Terminal Aerodrome Forecast
Issued by NWS Jackson, MS

Home | Current Version | Previous Version | Text Only | Print | Product List | Glossary On
Versions: 1 2 3 4 5 6 7 8 9 10 11 12 13
940
FTUS44 KJAN 261757
TAFHBG
TAF
KHBG 261757Z 2618/2718 31010G18KT P6SM BKN035
     FM262300 32010KT P6SM SCT035 BKN250
     FM270300 31007KT P6SM FEW015 SCT250
     FM270800 VRB03KT 3SM BR BKN015 BKN250
     FM271500 32005KT P6SM SCT015 BKN250=

USA.gov is the U.S. government's official web portal to all federal, state and local government web resources and services.